sensor_id;sensor_type;location;lat;lon;timestamp;P1;durP1;ratioP1;P2;durP2;ratioP2
67602;SDS011;54417;47.454;18.918;2023-04-03T00:00:33;6.28;;;4.40;;
67602;SDS011;54417;47.454;18.918;2023-04-03T00:05:58;8.57;;;5.18;;
67602;SDS011;54417;47.454;18.918;2023-04-03T00:11:22;6.70;;;4.63;;
67602;SDS011;54417;47.454;18.918;2023-04-03T00:16:47;9.18;;;4.32;;
67602;SDS011;54417;47.454;18.918;2023-04-03T00:22:12;5.47;;;4.65;;
67602;SDS011;54417;47.454;18.918;2023-04-03T00:27:36;5.35;;;4.10;;
67602;SDS011;54417;47.454;18.918;2023-04-03T00:33:01;5.07;;;3.85;;
67602;SDS011;54417;47.454;18.918;2023-04-03T00:38:26;6.45;;;4.20;;
67602;SDS011;54417;47.454;18.918;2023-04-03T00:43:50;4.82;;;3.80;;
67602;SDS011;54417;47.454;18.918;2023-04-03T00:49:14;4.90;;;3.97;;
67602;SDS011;54417;47.454;18.918;2023-04-03T00:54:39;5.03;;;3.92;;
67602;SDS011;54417;47.454;18.918;2023-04-03T01:00:05;3.78;;;2.88;;
67602;SDS011;54417;47.454;18.918;2023-04-03T01:05:31;3.97;;;3.35;;
67602;SDS011;54417;47.454;18.918;2023-04-03T01:10:57;4.22;;;3.25;;
67602;SDS011;54417;47.454;18.918;2023-04-03T01:16:22;3.08;;;2.78;;
67602;SDS011;54417;47.454;18.918;2023-04-03T01:27:38;5.83;;;3.47;;
67602;SDS011;54417;47.454;18.918;2023-04-03T01:33:03;3.90;;;3.38;;
67602;SDS011;54417;47.454;18.918;2023-04-03T01:38:28;3.35;;;2.92;;
67602;SDS011;54417;47.454;18.918;2023-04-03T01:43:52;3.50;;;2.78;;
67602;SDS011;54417;47.454;18.918;2023-04-03T01:49:17;3.40;;;3.10;;
67602;SDS011;54417;47.454;18.918;2023-04-03T01:54:41;3.33;;;2.88;;
67602;SDS011;54417;47.454;18.918;2023-04-03T02:00:06;3.40;;;2.72;;
67602;SDS011;54417;47.454;18.918;2023-04-03T02:05:35;3.17;;;2.88;;
67602;SDS011;54417;47.454;18.918;2023-04-03T02:11:00;3.40;;;3.10;;
67602;SDS011;54417;47.454;18.918;2023-04-03T02:16:24;3.38;;;3.03;;
67602;SDS011;54417;47.454;18.918;2023-04-03T02:21:49;3.13;;;2.40;;
67602;SDS011;54417;47.454;18.918;2023-04-03T02:27:13;3.35;;;2.53;;
67602;SDS011;54417;47.454;18.918;2023-04-03T02:32:37;3.28;;;2.85;;
67602;SDS011;54417;47.454;18.918;2023-04-03T02:38:02;3.28;;;2.85;;
67602;SDS011;54417;47.454;18.918;2023-04-03T02:43:28;2.83;;;2.42;;
67602;SDS011;54417;47.454;18.918;2023-04-03T02:48:52;4.00;;;2.97;;
67602;SDS011;54417;47.454;18.918;2023-04-03T02:54:17;3.88;;;3.35;;
67602;SDS011;54417;47.454;18.918;2023-04-03T02:59:46;4.10;;;3.35;;
67602;SDS011;54417;47.454;18.918;2023-04-03T03:05:10;3.90;;;3.42;;
67602;SDS011;54417;47.454;18.918;2023-04-03T03:10:35;5.30;;;4.00;;
67602;SDS011;54417;47.454;18.918;2023-04-03T03:16:00;3.17;;;2.83;;
67602;SDS011;54417;47.454;18.918;2023-04-03T03:21:24;4.38;;;3.33;;
67602;SDS011;54417;47.454;18.918;2023-04-03T03:26:49;5.47;;;3.75;;
67602;SDS011;54417;47.454;18.918;2023-04-03T03:32:13;4.07;;;3.67;;
67602;SDS011;54417;47.454;18.918;2023-04-03T03:37:37;3.92;;;3.47;;
67602;SDS011;54417;47.454;18.918;2023-04-03T03:43:02;5.68;;;3.55;;
67602;SDS011;54417;47.454;18.918;2023-04-03T03:48:26;5.57;;;4.13;;
67602;SDS011;54417;47.454;18.918;2023-04-03T03:53:51;6.30;;;4.00;;
67602;SDS011;54417;47.454;18.918;2023-04-03T03:59:17;5.68;;;3.88;;
67602;SDS011;54417;47.454;18.918;2023-04-03T04:04:41;4.20;;;3.13;;
67602;SDS011;54417;47.454;18.918;2023-04-03T04:10:06;5.43;;;3.53;;
67602;SDS011;54417;47.454;18.918;2023-04-03T04:15:32;3.53;;;3.20;;
67602;SDS011;54417;47.454;18.918;2023-04-03T04:20:56;5.47;;;3.97;;
67602;SDS011;54417;47.454;18.918;2023-04-03T04:26:21;5.13;;;3.35;;
67602;SDS011;54417;47.454;18.918;2023-04-03T04:31:46;5.93;;;3.78;;
67602;SDS011;54417;47.454;18.918;2023-04-03T04:37:10;4.32;;;2.83;;
67602;SDS011;54417;47.454;18.918;2023-04-03T04:42:35;4.60;;;3.53;;
67602;SDS011;54417;47.454;18.918;2023-04-03T04:48:00;4.22;;;3.33;;
67602;SDS011;54417;47.454;18.918;2023-04-03T04:53:24;4.53;;;3.67;;
67602;SDS011;54417;47.454;18.918;2023-04-03T04:58:48;4.10;;;3.67;;
67602;SDS011;54417;47.454;18.918;2023-04-03T05:04:16;3.67;;;3.33;;
67602;SDS011;54417;47.454;18.918;2023-04-03T05:09:44;4.15;;;3.67;;
67602;SDS011;54417;47.454;18.918;2023-04-03T05:15:09;4.05;;;3.08;;
67602;SDS011;54417;47.454;18.918;2023-04-03T05:20:35;4.97;;;3.72;;
67602;SDS011;54417;47.454;18.918;2023-04-03T05:25:59;3.80;;;2.78;;
67602;SDS011;54417;47.454;18.918;2023-04-03T05:31:25;4.93;;;3.30;;
67602;SDS011;54417;47.454;18.918;2023-04-03T05:36:54;5.07;;;2.80;;
67602;SDS011;54417;47.454;18.918;2023-04-03T05:42:19;3.28;;;2.85;;
67602;SDS011;54417;47.454;18.918;2023-04-03T05:47:43;4.15;;;3.00;;
67602;SDS011;54417;47.454;18.918;2023-04-03T05:53:09;3.20;;;2.63;;
67602;SDS011;54417;47.454;18.918;2023-04-03T05:58:39;4.75;;;3.30;;
67602;SDS011;54417;47.454;18.918;2023-04-03T06:04:03;6.47;;;3.15;;
67602;SDS011;54417;47.454;18.918;2023-04-03T06:09:28;4.97;;;2.85;;
67602;SDS011;54417;47.454;18.918;2023-04-03T06:14:53;5.00;;;3.55;;
67602;SDS011;54417;47.454;18.918;2023-04-03T06:20:17;2.97;;;2.67;;
67602;SDS011;54417;47.454;18.918;2023-04-03T06:25:43;3.67;;;2.88;;
67602;SDS011;54417;47.454;18.918;2023-04-03T06:31:07;2.88;;;2.63;;
67602;SDS011;54417;47.454;18.918;2023-04-03T06:36:31;2.40;;;2.20;;
67602;SDS011;54417;47.454;18.918;2023-04-03T06:41:56;4.55;;;2.97;;
67602;SDS011;54417;47.454;18.918;2023-04-03T06:47:31;3.03;;;2.40;;
67602;SDS011;54417;47.454;18.918;2023-04-03T06:52:54;3.15;;;2.30;;
67602;SDS011;54417;47.454;18.918;2023-04-03T06:58:20;3.45;;;2.50;;
67602;SDS011;54417;47.454;18.918;2023-04-03T07:03:44;2.40;;;2.20;;
67602;SDS011;54417;47.454;18.918;2023-04-03T07:09:10;4.20;;;2.45;;
67602;SDS011;54417;47.454;18.918;2023-04-03T07:14:35;2.58;;;2.33;;
67602;SDS011;54417;47.454;18.918;2023-04-03T07:19:59;3.13;;;1.98;;
67602;SDS011;54417;47.454;18.918;2023-04-03T07:25:26;2.35;;;2.10;;
67602;SDS011;54417;47.454;18.918;2023-04-03T07:30:51;2.33;;;1.98;;
67602;SDS011;54417;47.454;18.918;2023-04-03T07:36:18;1.77;;;1.60;;
67602;SDS011;54417;47.454;18.918;2023-04-03T07:41:44;3.35;;;2.10;;
67602;SDS011;54417;47.454;18.918;2023-04-03T07:47:09;2.70;;;1.75;;
67602;SDS011;54417;47.454;18.918;2023-04-03T07:52:33;2.65;;;1.60;;
67602;SDS011;54417;47.454;18.918;2023-04-03T07:57:57;1.58;;;1.48;;
67602;SDS011;54417;47.454;18.918;2023-04-03T08:03:22;1.75;;;1.60;;
67602;SDS011;54417;47.454;18.918;2023-04-03T08:08:46;2.13;;;1.92;;
67602;SDS011;54417;47.454;18.918;2023-04-03T08:14:10;2.42;;;1.88;;
67602;SDS011;54417;47.454;18.918;2023-04-03T08:19:40;2.47;;;2.10;;
67602;SDS011;54417;47.454;18.918;2023-04-03T08:25:04;1.98;;;1.77;;
67602;SDS011;54417;47.454;18.918;2023-04-03T08:30:28;3.25;;;1.73;;
67602;SDS011;54417;47.454;18.918;2023-04-03T08:35:54;1.65;;;1.55;;
67602;SDS011;54417;47.454;18.918;2023-04-03T08:41:20;1.85;;;1.55;;
67602;SDS011;54417;47.454;18.918;2023-04-03T08:46:56;3.28;;;1.63;;
67602;SDS011;54417;47.454;18.918;2023-04-03T08:52:30;2.85;;;1.85;;
67602;SDS011;54417;47.454;18.918;2023-04-03T08:57:59;1.95;;;1.40;;
67602;SDS011;54417;47.454;18.918;2023-04-03T09:03:28;1.60;;;1.50;;
67602;SDS011;54417;47.454;18.918;2023-04-03T09:09:04;1.75;;;1.60;;
67602;SDS011;54417;47.454;18.918;2023-04-03T09:14:36;1.60;;;1.50;;
67602;SDS011;54417;47.454;18.918;2023-04-03T09:20:05;1.90;;;1.30;;
67602;SDS011;54417;47.454;18.918;2023-04-03T09:25:43;1.27;;;1.17;;
67602;SDS011;54417;47.454;18.918;2023-04-03T09:31:12;1.10;;;1.10;;
67602;SDS011;54417;47.454;18.918;2023-04-03T09:36:43;1.98;;;0.85;;
67602;SDS011;54417;47.454;18.918;2023-04-03T09:42:14;1.25;;;1.15;;
67602;SDS011;54417;47.454;18.918;2023-04-03T09:47:42;1.35;;;1.25;;
67602;SDS011;54417;47.454;18.918;2023-04-03T09:53:07;1.23;;;1.10;;
67602;SDS011;54417;47.454;18.918;2023-04-03T09:58:51;0.98;;;0.98;;
67602;SDS011;54417;47.454;18.918;2023-04-03T10:04:16;2.28;;;1.10;;
67602;SDS011;54417;47.454;18.918;2023-04-03T10:09:42;1.17;;;1.10;;
67602;SDS011;54417;47.454;18.918;2023-04-03T10:15:20;1.00;;;1.00;;
67602;SDS011;54417;47.454;18.918;2023-04-03T10:20:44;1.30;;;1.20;;
67602;SDS011;54417;47.454;18.918;2023-04-03T10:26:14;2.15;;;1.20;;
67602;SDS011;54417;47.454;18.918;2023-04-03T10:31:48;1.42;;;1.33;;
67602;SDS011;54417;47.454;18.918;2023-04-03T10:37:21;2.33;;;1.23;;
67602;SDS011;54417;47.454;18.918;2023-04-03T10:42:49;1.27;;;1.17;;
67602;SDS011;54417;47.454;18.918;2023-04-03T10:48:22;1.13;;;1.05;;
67602;SDS011;54417;47.454;18.918;2023-04-03T10:53:57;1.50;;;1.40;;
67602;SDS011;54417;47.454;18.918;2023-04-03T10:59:30;4.00;;;1.42;;
67602;SDS011;54417;47.454;18.918;2023-04-03T11:04:59;4.30;;;1.42;;
67602;SDS011;54417;47.454;18.918;2023-04-03T11:10:33;3.88;;;2.30;;
67602;SDS011;54417;47.454;18.918;2023-04-03T11:16:00;2.63;;;1.58;;
67602;SDS011;54417;47.454;18.918;2023-04-03T11:21:29;2.58;;;1.77;;
67602;SDS011;54417;47.454;18.918;2023-04-03T11:26:58;1.50;;;1.40;;
67602;SDS011;54417;47.454;18.918;2023-04-03T11:32:29;1.27;;;1.17;;
67602;SDS011;54417;47.454;18.918;2023-04-03T11:38:13;2.92;;;1.00;;
67602;SDS011;54417;47.454;18.918;2023-04-03T11:43:43;1.00;;;1.00;;
67602;SDS011;54417;47.454;18.918;2023-04-03T12:01:08;1.45;;;1.35;;
67602;SDS011;54417;47.454;18.918;2023-04-03T12:12:38;1.08;;;1.00;;
67602;SDS011;54417;47.454;18.918;2023-04-03T12:29:25;1.58;;;1.30;;
67602;SDS011;54417;47.454;18.918;2023-04-03T12:34:56;1.55;;;1.40;;
67602;SDS011;54417;47.454;18.918;2023-04-03T12:40:33;4.05;;;1.35;;
67602;SDS011;54417;47.454;18.918;2023-04-03T12:46:03;1.35;;;1.08;;
67602;SDS011;54417;47.454;18.918;2023-04-03T12:51:36;1.58;;;1.48;;
67602;SDS011;54417;47.454;18.918;2023-04-03T12:57:09;1.52;;;1.35;;
67602;SDS011;54417;47.454;18.918;2023-04-03T13:02:35;1.58;;;1.25;;
67602;SDS011;54417;47.454;18.918;2023-04-03T13:08:00;1.88;;;1.58;;
67602;SDS011;54417;47.454;18.918;2023-04-03T13:13:27;1.30;;;1.20;;
67602;SDS011;54417;47.454;18.918;2023-04-03T13:18:52;1.20;;;1.02;;
67602;SDS011;54417;47.454;18.918;2023-04-03T13:24:17;1.30;;;1.20;;
67602;SDS011;54417;47.454;18.918;2023-04-03T13:29:41;1.13;;;1.00;;
67602;SDS011;54417;47.454;18.918;2023-04-03T13:40:55;1.08;;;1.00;;
67602;SDS011;54417;47.454;18.918;2023-04-03T13:46:23;1.75;;;1.08;;
67602;SDS011;54417;47.454;18.918;2023-04-03T13:51:51;3.05;;;1.08;;
67602;SDS011;54417;47.454;18.918;2023-04-03T13:57:28;1.20;;;1.10;;
67602;SDS011;54417;47.454;18.918;2023-04-03T14:02:53;1.58;;;1.40;;
67602;SDS011;54417;47.454;18.918;2023-04-03T14:08:20;3.58;;;2.28;;
67602;SDS011;54417;47.454;18.918;2023-04-03T14:14:01;3.03;;;1.90;;
67602;SDS011;54417;47.454;18.918;2023-04-03T14:19:30;1.70;;;1.60;;
67602;SDS011;54417;47.454;18.918;2023-04-03T14:24:57;3.53;;;2.25;;
67602;SDS011;54417;47.454;18.918;2023-04-03T14:30:23;1.90;;;1.80;;
67602;SDS011;54417;47.454;18.918;2023-04-03T14:35:48;5.93;;;3.13;;
67602;SDS011;54417;47.454;18.918;2023-04-03T14:41:14;2.95;;;2.25;;
67602;SDS011;54417;47.454;18.918;2023-04-03T14:46:41;6.90;;;2.38;;
67602;SDS011;54417;47.454;18.918;2023-04-03T14:52:18;3.78;;;2.08;;
67602;SDS011;54417;47.454;18.918;2023-04-03T14:57:45;1.35;;;1.25;;
67602;SDS011;54417;47.454;18.918;2023-04-03T15:03:12;1.70;;;1.60;;
67602;SDS011;54417;47.454;18.918;2023-04-03T15:08:37;6.95;;;2.60;;
67602;SDS011;54417;47.454;18.918;2023-04-03T15:14:04;2.05;;;1.90;;
67602;SDS011;54417;47.454;18.918;2023-04-03T15:19:28;11.30;;;4.00;;
67602;SDS011;54417;47.454;18.918;2023-04-03T15:24:52;12.52;;;7.55;;
67602;SDS011;54417;47.454;18.918;2023-04-03T15:30:18;5.63;;;2.97;;
67602;SDS011;54417;47.454;18.918;2023-04-03T15:35:43;12.30;;;2.63;;
67602;SDS011;54417;47.454;18.918;2023-04-03T15:41:07;3.33;;;2.60;;
67602;SDS011;54417;47.454;18.918;2023-04-03T15:46:32;2.70;;;1.98;;
67602;SDS011;54417;47.454;18.918;2023-04-03T15:51:56;5.72;;;2.40;;
67602;SDS011;54417;47.454;18.918;2023-04-03T15:57:20;1.42;;;1.30;;
67602;SDS011;54417;47.454;18.918;2023-04-03T16:02:50;2.05;;;1.50;;
67602;SDS011;54417;47.454;18.918;2023-04-03T16:08:19;5.32;;;2.30;;
67602;SDS011;54417;47.454;18.918;2023-04-03T16:13:43;2.42;;;1.85;;
67602;SDS011;54417;47.454;18.918;2023-04-03T16:19:08;2.00;;;1.58;;
67602;SDS011;54417;47.454;18.918;2023-04-03T16:24:32;3.90;;;2.33;;
67602;SDS011;54417;47.454;18.918;2023-04-03T16:29:57;2.13;;;1.75;;
67602;SDS011;54417;47.454;18.918;2023-04-03T16:35:23;3.60;;;2.13;;
67602;SDS011;54417;47.454;18.918;2023-04-03T16:40:47;5.00;;;2.78;;
67602;SDS011;54417;47.454;18.918;2023-04-03T16:46:11;16.30;;;5.90;;
67602;SDS011;54417;47.454;18.918;2023-04-03T16:51:37;4.00;;;2.30;;
67602;SDS011;54417;47.454;18.918;2023-04-03T16:57:01;4.63;;;1.98;;
67602;SDS011;54417;47.454;18.918;2023-04-03T17:02:24;4.93;;;2.72;;
67602;SDS011;54417;47.454;18.918;2023-04-03T17:07:50;2.95;;;1.67;;
67602;SDS011;54417;47.454;18.918;2023-04-03T17:13:14;7.95;;;2.00;;
67602;SDS011;54417;47.454;18.918;2023-04-03T17:18:39;2.53;;;1.60;;
67602;SDS011;54417;47.454;18.918;2023-04-03T17:24:05;2.10;;;1.63;;
67602;SDS011;54417;47.454;18.918;2023-04-03T17:29:30;1.40;;;1.30;;
67602;SDS011;54417;47.454;18.918;2023-04-03T17:34:54;1.27;;;1.15;;
67602;SDS011;54417;47.454;18.918;2023-04-03T17:40:19;2.67;;;1.63;;
67602;SDS011;54417;47.454;18.918;2023-04-03T17:45:43;2.05;;;1.55;;
67602;SDS011;54417;47.454;18.918;2023-04-03T17:51:08;1.85;;;1.25;;
67602;SDS011;54417;47.454;18.918;2023-04-03T17:56:34;2.05;;;1.50;;
67602;SDS011;54417;47.454;18.918;2023-04-03T18:01:58;1.45;;;1.35;;
67602;SDS011;54417;47.454;18.918;2023-04-03T18:07:22;2.22;;;1.80;;
67602;SDS011;54417;47.454;18.918;2023-04-03T18:12:48;2.55;;;1.80;;
67602;SDS011;54417;47.454;18.918;2023-04-03T18:18:14;3.17;;;1.60;;
67602;SDS011;54417;47.454;18.918;2023-04-03T18:23:38;2.15;;;1.60;;
67602;SDS011;54417;47.454;18.918;2023-04-03T18:29:07;3.55;;;2.10;;
67602;SDS011;54417;47.454;18.918;2023-04-03T18:34:33;2.70;;;1.40;;
67602;SDS011;54417;47.454;18.918;2023-04-03T18:39:57;2.20;;;1.55;;
67602;SDS011;54417;47.454;18.918;2023-04-03T18:45:25;3.40;;;1.85;;
67602;SDS011;54417;47.454;18.918;2023-04-03T18:50:49;5.03;;;1.40;;
67602;SDS011;54417;47.454;18.918;2023-04-03T18:56:13;1.52;;;1.42;;
67602;SDS011;54417;47.454;18.918;2023-04-03T19:01:39;2.78;;;1.92;;
67602;SDS011;54417;47.454;18.918;2023-04-03T19:07:03;1.70;;;1.50;;
67602;SDS011;54417;47.454;18.918;2023-04-03T19:12:27;1.67;;;1.48;;
67602;SDS011;54417;47.454;18.918;2023-04-03T19:17:53;3.22;;;1.80;;
67602;SDS011;54417;47.454;18.918;2023-04-03T19:23:17;2.38;;;1.23;;
67602;SDS011;54417;47.454;18.918;2023-04-03T19:28:40;1.98;;;1.77;;
67602;SDS011;54417;47.454;18.918;2023-04-03T19:34:06;3.00;;;1.80;;
67602;SDS011;54417;47.454;18.918;2023-04-03T19:39:31;2.05;;;1.50;;
67602;SDS011;54417;47.454;18.918;2023-04-03T19:44:56;1.75;;;1.50;;
67602;SDS011;54417;47.454;18.918;2023-04-03T19:50:22;4.18;;;1.70;;
67602;SDS011;54417;47.454;18.918;2023-04-03T19:55:46;2.60;;;1.58;;
67602;SDS011;54417;47.454;18.918;2023-04-03T20:01:09;1.90;;;1.58;;
67602;SDS011;54417;47.454;18.918;2023-04-03T20:06:35;2.55;;;1.75;;
67602;SDS011;54417;47.454;18.918;2023-04-03T20:11:59;1.90;;;1.80;;
67602;SDS011;54417;47.454;18.918;2023-04-03T20:17:23;3.22;;;1.80;;
67602;SDS011;54417;47.454;18.918;2023-04-03T20:22:48;2.22;;;1.35;;
67602;SDS011;54417;47.454;18.918;2023-04-03T20:28:14;1.73;;;1.52;;
67602;SDS011;54417;47.454;18.918;2023-04-03T20:33:39;4.10;;;2.33;;
67602;SDS011;54417;47.454;18.918;2023-04-03T20:39:05;3.55;;;1.60;;
67602;SDS011;54417;47.454;18.918;2023-04-03T20:44:29;5.18;;;2.15;;
67602;SDS011;54417;47.454;18.918;2023-04-03T20:49:54;3.70;;;1.70;;
67602;SDS011;54417;47.454;18.918;2023-04-03T20:55:19;3.53;;;1.63;;
67602;SDS011;54417;47.454;18.918;2023-04-03T21:00:43;2.80;;;1.70;;
67602;SDS011;54417;47.454;18.918;2023-04-03T21:23:55;3.58;;;1.92;;
67602;SDS011;54417;47.454;18.918;2023-04-03T21:29:19;2.10;;;1.90;;
67602;SDS011;54417;47.454;18.918;2023-04-03T21:34:44;3.55;;;1.90;;
67602;SDS011;54417;47.454;18.918;2023-04-03T21:40:08;1.95;;;1.73;;
67602;SDS011;54417;47.454;18.918;2023-04-03T21:45:32;2.00;;;1.80;;
67602;SDS011;54417;47.454;18.918;2023-04-03T21:51:03;2.63;;;2.05;;
67602;SDS011;54417;47.454;18.918;2023-04-03T21:56:28;4.40;;;1.90;;
67602;SDS011;54417;47.454;18.918;2023-04-03T22:01:52;2.78;;;1.67;;
67602;SDS011;54417;47.454;18.918;2023-04-03T22:07:17;2.40;;;1.90;;
67602;SDS011;54417;47.454;18.918;2023-04-03T22:12:41;2.60;;;1.63;;
67602;SDS011;54417;47.454;18.918;2023-04-03T22:18:05;8.90;;;2.03;;
67602;SDS011;54417;47.454;18.918;2023-04-03T22:23:30;4.32;;;2.28;;
67602;SDS011;54417;47.454;18.918;2023-04-03T22:28:54;4.28;;;1.85;;
67602;SDS011;54417;47.454;18.918;2023-04-03T22:34:18;2.65;;;1.65;;
67602;SDS011;54417;47.454;18.918;2023-04-03T22:39:44;3.45;;;2.00;;
67602;SDS011;54417;47.454;18.918;2023-04-03T22:45:08;3.30;;;1.48;;
67602;SDS011;54417;47.454;18.918;2023-04-03T22:50:33;3.05;;;1.67;;
67602;SDS011;54417;47.454;18.918;2023-04-03T22:55:59;3.08;;;2.13;;
67602;SDS011;54417;47.454;18.918;2023-04-03T23:01:25;7.32;;;1.90;;
67602;SDS011;54417;47.454;18.918;2023-04-03T23:06:50;2.90;;;1.40;;
67602;SDS011;54417;47.454;18.918;2023-04-03T23:12:15;2.40;;;1.73;;
67602;SDS011;54417;47.454;18.918;2023-04-03T23:17:39;3.45;;;1.77;;
67602;SDS011;54417;47.454;18.918;2023-04-03T23:23:03;3.17;;;1.88;;
67602;SDS011;54417;47.454;18.918;2023-04-03T23:28:29;5.90;;;2.10;;
67602;SDS011;54417;47.454;18.918;2023-04-03T23:33:53;1.73;;;1.52;;
67602;SDS011;54417;47.454;18.918;2023-04-03T23:39:16;2.60;;;1.65;;
67602;SDS011;54417;47.454;18.918;2023-04-03T23:44:42;2.45;;;1.83;;
67602;SDS011;54417;47.454;18.918;2023-04-03T23:50:06;2.13;;;1.90;;
67602;SDS011;54417;47.454;18.918;2023-04-03T23:55:30;5.13;;;1.80;;
